Weather at Jeannette Hospital Heliport

Public forecast

Using degrees Fahrenheit for public forecast. Weather courtesy of forecast.io.

Closest aviation weather report (METAR) to Jeannette Hospital Heliport

Closest report is Arnold Palmer Regional Airport, 9.8 nm (18.2 km) ESE. Retrieved 2022/01/27 07:35 UTC (5 minutes ago):

KLBE 270735Z AUTO 00000KT 10SM CLR M19/M21 A3036 RMK AO2

Closest aviation forecast (TAF) to Jeannette Hospital Heliport

Closest forecast is Arnold Palmer Regional Airport, 9.8 nm (18.2 km) ESE. Retrieved 2022/01/27 06:22 UTC (1 hour ago):

TAF KLBE 270520Z 2706/2806 16003KT P6SM SKC FM271500 19010KT P6SM BKN100 FM280000 22010KT 5SM -SN OVC035 FM280500 24010KT 5SM -SN OVC015